Acajutla, El Salvador

10:50 PM CST on October 21, 2014 (GMT -0600)
El Salvador International | Change Station
CLOSE
Current Station
Airport
Location: El Salvador,
Elevation: 82 ft
Nearby Weather Stations

Elev 82 ft 13.44 °N, 89.06 °W | Updated 28 minutes ago

Thunderstorm
Thunderstorm
77 °F
Feels Like 77 °F
N
4
Wind Variable Wind from Variable

Today
High -- | Low -- °F
--% Chance of Precip.
Yesterday
High -- | Low -- °F
Precip. -- in
5:50 AM 5:36 PM
Waning Crescent, 3% visible
Pressure 29.86 in
Visibility 6.2 miles
Clouds Scattered Clouds 1000 ft
Few 3300 ft
Dew Point 77 °F
Humidity 100%
Rainfall 0.00 in
Snow Depth Not available.
UV 0 out of 12
Pollen Not available.
Air Quality Not available.
Flu Activity Not available.
SPECI MSLP 220422Z VRB03KT 9999 TS SCT010 FEW033CB 25/25 Q1011

More Conditions Fewer Conditions

Pressure 29.86 in
Visibility 6.2 miles
Clouds Scattered Clouds 1000 ft
Few 3300 ft
Dew Point 77 °F
Humidity 100%
Rainfall 0.00 in
Snow Depth Not available.
UV 0 out of 12
Pollen Not available.
Air Quality Not available.
Flu Activity Not available.
SPECI MSLP 220422Z VRB03KT 9999 TS SCT010 FEW033CB 25/25 Q1011

More Conditions Fewer Conditions

10-Day Weather Forecast

Almanac

Astronomy

Oct. 21, 2014 Rise Set
Actual Time 5:50 AM CST 5:36 PM CST
Civil Twilight 5:29 AM CST 5:58 PM CST
Nautical Twilight 5:04 AM CST 6:23 PM CST
Astronomical Twilight 4:39 AM CST 6:48 PM CST
Moon 3:57 AM CST (10/21) 4:13 PM CST (10/21)
Length of Visible Light 12h 28m
Length of Day
11h 45m
Tomorrow will be 0m 42s shorter.
Waning Crescent, 3% of the Moon is Illuminated
Oct 22
Waning Crescent
Oct 23
New
Oct 30
First Quarter
Nov 6
Full
Nov 14
Last Quarter

Today's Extremes

Country Highs Country Lows

Community

WunderPhotos

Upload Photos

1,763,882 photos uploaded!

Nearby

Snow Depth

Not available.

Earthquake Activity

City Distance Mag. Time & Date
No recent earthquake activity has been reported nearby.
Minimum magnitude displayed is 2.5.

Coastal Water Temperatures

Place Temperature
No Stations Reporting

Nearby Weather Stations